sensor_id;sensor_type;location;lat;lon;timestamp;pressure;altitude;pressure_sealevel;temperature;humidity
22283;BME280;11310;51.528;21.204;2023-02-21T00:02:18;98744.44;;;8.50;100.00
22283;BME280;11310;51.528;21.204;2023-02-21T00:05:15;98744.44;;;8.50;100.00
22283;BME280;11310;51.528;21.204;2023-02-21T00:08:13;98746.84;;;8.53;100.00
22283;BME280;11310;51.528;21.204;2023-02-21T00:11:10;98738.09;;;8.54;100.00
22283;BME280;11310;51.528;21.204;2023-02-21T00:14:06;98737.53;;;8.49;100.00
22283;BME280;11310;51.528;21.204;2023-02-21T00:17:06;98737.78;;;8.44;100.00
22283;BME280;11310;51.528;21.204;2023-02-21T00:19:59;98725.09;;;8.38;100.00
22283;BME280;11310;51.528;21.204;2023-02-21T00:23:02;98732.06;;;8.38;100.00
22283;BME280;11310;51.528;21.204;2023-02-21T00:26:00;98728.53;;;8.39;100.00
22283;BME280;11310;51.528;21.204;2023-02-21T00:29:04;98719.38;;;8.32;100.00
22283;BME280;11310;51.528;21.204;2023-02-21T00:32:04;98728.31;;;8.28;100.00
22283;BME280;11310;51.528;21.204;2023-02-21T00:35:04;98732.03;;;8.24;100.00
22283;BME280;11310;51.528;21.204;2023-02-21T00:38:03;98732.97;;;8.23;100.00
22283;BME280;11310;51.528;21.204;2023-02-21T00:41:08;98722.66;;;8.20;100.00
22283;BME280;11310;51.528;21.204;2023-02-21T00:44:05;98724.44;;;8.19;100.00
22283;BME280;11310;51.528;21.204;2023-02-21T00:47:00;98718.53;;;8.16;100.00
22283;BME280;11310;51.528;21.204;2023-02-21T00:49:53;98716.69;;;8.18;100.00
22283;BME280;11310;51.528;21.204;2023-02-21T00:52:51;98716.84;;;8.15;100.00
22283;BME280;11310;51.528;21.204;2023-02-21T00:55:46;98719.28;;;8.18;100.00
22283;BME280;11310;51.528;21.204;2023-02-21T00:58:36;98715.69;;;8.20;100.00
22283;BME280;11310;51.528;21.204;2023-02-21T01:01:37;98700.69;;;8.24;100.00
22283;BME280;11310;51.528;21.204;2023-02-21T01:04:35;98703.88;;;8.29;100.00
22283;BME280;11310;51.528;21.204;2023-02-21T01:07:33;98706.41;;;8.30;100.00
22283;BME280;11310;51.528;21.204;2023-02-21T01:10:34;98719.53;;;8.29;100.00
22283;BME280;11310;51.528;21.204;2023-02-21T01:13:35;98715.25;;;8.28;100.00
22283;BME280;11310;51.528;21.204;2023-02-21T01:16:36;98703.22;;;8.25;100.00
22283;BME280;11310;51.528;21.204;2023-02-21T01:19:46;98700.84;;;8.21;100.00
22283;BME280;11310;51.528;21.204;2023-02-21T01:22:46;98719.72;;;8.26;100.00
22283;BME280;11310;51.528;21.204;2023-02-21T01:25:49;98706.56;;;8.27;100.00
22283;BME280;11310;51.528;21.204;2023-02-21T01:28:46;98705.66;;;8.28;100.00
22283;BME280;11310;51.528;21.204;2023-02-21T01:31:50;98725.53;;;8.31;100.00
22283;BME280;11310;51.528;21.204;2023-02-21T01:34:46;98710.44;;;8.36;100.00
22283;BME280;11310;51.528;21.204;2023-02-21T01:37:45;98689.31;;;8.39;100.00
22283;BME280;11310;51.528;21.204;2023-02-21T01:40:46;98687.47;;;8.41;100.00
22283;BME280;11310;51.528;21.204;2023-02-21T01:43:58;98700.94;;;8.49;100.00
22283;BME280;11310;51.528;21.204;2023-02-21T01:47:00;98707.66;;;8.53;100.00
22283;BME280;11310;51.528;21.204;2023-02-21T01:50:03;98702.44;;;8.53;100.00
22283;BME280;11310;51.528;21.204;2023-02-21T01:53:07;98703.00;;;8.44;100.00
22283;BME280;11310;51.528;21.204;2023-02-21T01:56:03;98701.81;;;8.34;100.00
22283;BME280;11310;51.528;21.204;2023-02-21T01:59:04;98702.19;;;8.28;100.00
22283;BME280;11310;51.528;21.204;2023-02-21T02:02:02;98694.63;;;8.23;100.00
22283;BME280;11310;51.528;21.204;2023-02-21T02:04:56;98692.41;;;8.16;100.00
22283;BME280;11310;51.528;21.204;2023-02-21T02:07:53;98683.81;;;8.14;100.00
22283;BME280;11310;51.528;21.204;2023-02-21T02:10:45;98687.47;;;8.11;100.00
22283;BME280;11310;51.528;21.204;2023-02-21T02:13:40;98682.31;;;8.10;100.00
22283;BME280;11310;51.528;21.204;2023-02-21T02:16:20;98679.53;;;8.13;100.00
22283;BME280;11310;51.528;21.204;2023-02-21T02:19:41;98673.38;;;8.14;100.00
22283;BME280;11310;51.528;21.204;2023-02-21T02:25:31;98671.66;;;7.99;100.00
22283;BME280;11310;51.528;21.204;2023-02-21T02:28:22;98673.00;;;7.90;100.00
22283;BME280;11310;51.528;21.204;2023-02-21T02:31:24;98663.78;;;7.85;100.00
22283;BME280;11310;51.528;21.204;2023-02-21T02:36:50;98661.09;;;7.71;100.00
22283;BME280;11310;51.528;21.204;2023-02-21T02:39:23;98670.75;;;7.69;100.00
22283;BME280;11310;51.528;21.204;2023-02-21T02:42:02;98662.34;;;7.64;100.00
22283;BME280;11310;51.528;21.204;2023-02-21T02:44:39;98653.78;;;7.62;100.00
22283;BME280;11310;51.528;21.204;2023-02-21T02:47:13;98667.72;;;7.61;100.00
22283;BME280;11310;51.528;21.204;2023-02-21T02:49:44;98659.16;;;7.59;100.00
22283;BME280;11310;51.528;21.204;2023-02-21T02:52:14;98665.25;;;7.59;100.00
22283;BME280;11310;51.528;21.204;2023-02-21T02:54:42;98647.22;;;7.55;100.00
22283;BME280;11310;51.528;21.204;2023-02-21T02:57:11;98661.00;;;7.57;100.00
22283;BME280;11310;51.528;21.204;2023-02-21T02:59:42;98651.50;;;7.56;100.00
22283;BME280;11310;51.528;21.204;2023-02-21T03:02:36;98651.41;;;7.57;100.00
22283;BME280;11310;51.528;21.204;2023-02-21T03:05:18;98662.72;;;7.58;100.00
22283;BME280;11310;51.528;21.204;2023-02-21T03:07:57;98656.63;;;7.57;100.00
22283;BME280;11310;51.528;21.204;2023-02-21T03:10:36;98667.72;;;7.61;100.00
22283;BME280;11310;51.528;21.204;2023-02-21T03:13:12;98670.47;;;7.59;100.00
22283;BME280;11310;51.528;21.204;2023-02-21T03:15:47;98665.31;;;7.58;100.00
22283;BME280;11310;51.528;21.204;2023-02-21T03:18:23;98679.25;;;7.57;100.00
22283;BME280;11310;51.528;21.204;2023-02-21T03:20:56;98677.66;;;7.54;100.00
22283;BME280;11310;51.528;21.204;2023-02-21T03:23:28;98674.31;;;7.52;100.00
22283;BME280;11310;51.528;21.204;2023-02-21T03:26:00;98687.38;;;7.52;100.00
22283;BME280;11310;51.528;21.204;2023-02-21T03:28:33;98695.28;;;7.51;100.00
22283;BME280;11310;51.528;21.204;2023-02-21T03:31:06;98697.88;;;7.51;100.00
22283;BME280;11310;51.528;21.204;2023-02-21T03:33:36;98679.03;;;7.46;100.00
22283;BME280;11310;51.528;21.204;2023-02-21T03:36:15;98673.31;;;7.39;100.00
22283;BME280;11310;51.528;21.204;2023-02-21T03:38:45;98679.47;;;7.38;100.00
22283;BME280;11310;51.528;21.204;2023-02-21T03:41:15;98682.91;;;7.39;100.00
22283;BME280;11310;51.528;21.204;2023-02-21T03:43:43;98684.59;;;7.40;100.00
22283;BME280;11310;51.528;21.204;2023-02-21T03:46:12;98672.47;;;7.39;100.00
22283;BME280;11310;51.528;21.204;2023-02-21T03:48:41;98682.06;;;7.38;100.00
22283;BME280;11310;51.528;21.204;2023-02-21T03:51:18;98675.16;;;7.37;100.00
22283;BME280;11310;51.528;21.204;2023-02-21T03:53:48;98682.91;;;7.39;100.00
22283;BME280;11310;51.528;21.204;2023-02-21T03:56:19;98681.13;;;7.39;100.00
22283;BME280;11310;51.528;21.204;2023-02-21T03:59:20;98688.97;;;7.39;100.00
22283;BME280;11310;51.528;21.204;2023-02-21T04:01:49;98676.84;;;7.38;100.00
22283;BME280;11310;51.528;21.204;2023-02-21T04:04:18;98675.16;;;7.37;100.00
22283;BME280;11310;51.528;21.204;2023-02-21T04:06:53;98687.63;;;7.32;100.00
22283;BME280;11310;51.528;21.204;2023-02-21T04:09:24;98678.19;;;7.30;100.00
22283;BME280;11310;51.528;21.204;2023-02-21T04:11:53;98698.28;;;7.28;100.00
22283;BME280;11310;51.528;21.204;2023-02-21T04:14:22;98692.13;;;7.29;100.00
22283;BME280;11310;51.528;21.204;2023-02-21T04:16:53;98681.81;;;7.27;100.00
22283;BME280;11310;51.528;21.204;2023-02-21T04:19:22;98675.66;;;7.28;100.00
22283;BME280;11310;51.528;21.204;2023-02-21T04:21:50;98689.53;;;7.29;100.00
22283;BME280;11310;51.528;21.204;2023-02-21T04:24:20;98685.25;;;7.28;100.00
22283;BME280;11310;51.528;21.204;2023-02-21T04:26:52;98682.91;;;7.23;100.00
22283;BME280;11310;51.528;21.204;2023-02-21T04:29:22;98695.25;;;7.20;100.00
22283;BME280;11310;51.528;21.204;2023-02-21T04:31:50;98713.69;;;7.17;100.00
22283;BME280;11310;51.528;21.204;2023-02-21T04:34:20;98686.59;;;7.19;100.00
22283;BME280;11310;51.528;21.204;2023-02-21T04:36:48;98678.84;;;7.18;100.00
22283;BME280;11310;51.528;21.204;2023-02-21T04:39:17;98670.44;;;7.13;100.00
22283;BME280;11310;51.528;21.204;2023-02-21T04:41:47;98672.44;;;7.08;100.00
22283;BME280;11310;51.528;21.204;2023-02-21T04:44:17;98671.59;;;7.07;100.00
22283;BME280;11310;51.528;21.204;2023-02-21T04:46:45;98670.94;;;7.04;100.00
22283;BME280;11310;51.528;21.204;2023-02-21T04:49:14;98664.94;;;7.02;100.00
22283;BME280;11310;51.528;21.204;2023-02-21T04:51:42;98672.59;;;7.05;100.00
22283;BME280;11310;51.528;21.204;2023-02-21T04:54:11;98671.00;;;7.02;100.00
22283;BME280;11310;51.528;21.204;2023-02-21T04:56:40;98675.38;;;7.02;100.00
22283;BME280;11310;51.528;21.204;2023-02-21T04:59:08;98681.50;;;7.01;100.00
22283;BME280;11310;51.528;21.204;2023-02-21T05:01:38;98691.94;;;7.01;100.00
22283;BME280;11310;51.528;21.204;2023-02-21T05:04:07;98697.06;;;7.02;100.00
22283;BME280;11310;51.528;21.204;2023-02-21T05:06:35;98698.66;;;7.05;100.00
22283;BME280;11310;51.528;21.204;2023-02-21T05:09:04;98700.34;;;7.06;100.00
22283;BME280;11310;51.528;21.204;2023-02-21T05:11:33;98702.88;;;7.07;100.00
22283;BME280;11310;51.528;21.204;2023-02-21T05:14:02;98693.38;;;7.06;100.00
22283;BME280;11310;51.528;21.204;2023-02-21T05:16:31;98700.19;;;7.09;100.00
22283;BME280;11310;51.528;21.204;2023-02-21T05:19:02;98697.44;;;7.12;100.00
22283;BME280;11310;51.528;21.204;2023-02-21T05:21:34;98681.19;;;7.07;100.00
22283;BME280;11310;51.528;21.204;2023-02-21T05:24:05;98690.84;;;7.05;100.00
22283;BME280;11310;51.528;21.204;2023-02-21T05:26:36;98705.03;;;6.99;100.00
22283;BME280;11310;51.528;21.204;2023-02-21T05:29:05;98704.53;;;6.93;100.00
22283;BME280;11310;51.528;21.204;2023-02-21T05:31:34;98698.81;;;6.86;100.00
22283;BME280;11310;51.528;21.204;2023-02-21T05:34:06;98699.63;;;6.87;100.00
22283;BME280;11310;51.528;21.204;2023-02-21T05:36:35;98713.44;;;6.89;100.00
22283;BME280;11310;51.528;21.204;2023-02-21T05:39:05;98730.78;;;6.90;100.00
22283;BME280;11310;51.528;21.204;2023-02-21T05:41:35;98718.56;;;6.90;100.00
22283;BME280;11310;51.528;21.204;2023-02-21T05:44:06;98725.78;;;6.85;100.00
22283;BME280;11310;51.528;21.204;2023-02-21T05:46:34;98734.13;;;6.92;100.00
22283;BME280;11310;51.528;21.204;2023-02-21T05:49:03;98728.84;;;6.93;100.00
22283;BME280;11310;51.528;21.204;2023-02-21T05:51:35;98739.19;;;6.95;100.00
22283;BME280;11310;51.528;21.204;2023-02-21T05:54:04;98736.50;;;6.96;100.00
22283;BME280;11310;51.528;21.204;2023-02-21T05:56:37;98740.72;;;6.99;100.00
22283;BME280;11310;51.528;21.204;2023-02-21T05:59:07;98747.59;;;7.00;100.00
22283;BME280;11310;51.528;21.204;2023-02-21T06:01:38;98750.88;;;7.03;100.00
22283;BME280;11310;51.528;21.204;2023-02-21T06:04:07;98757.72;;;7.06;100.00
22283;BME280;11310;51.528;21.204;2023-02-21T06:06:37;98754.09;;;7.08;100.00
22283;BME280;11310;51.528;21.204;2023-02-21T06:09:07;98735.78;;;7.10;100.00
22283;BME280;11310;51.528;21.204;2023-02-21T06:11:37;98757.56;;;7.09;100.00
22283;BME280;11310;51.528;21.204;2023-02-21T06:14:07;98753.28;;;7.08;100.00
22283;BME280;11310;51.528;21.204;2023-02-21T06:16:37;98753.44;;;7.05;100.00
22283;BME280;11310;51.528;21.204;2023-02-21T06:19:07;98746.38;;;7.07;100.00
22283;BME280;11310;51.528;21.204;2023-02-21T06:21:37;98764.44;;;7.10;100.00
22283;BME280;11310;51.528;21.204;2023-02-21T06:24:08;98773.13;;;7.10;100.00
22283;BME280;11310;51.528;21.204;2023-02-21T06:26:37;98778.09;;;7.15;100.00
22283;BME280;11310;51.528;21.204;2023-02-21T06:29:07;98791.91;;;7.17;100.00
22283;BME280;11310;51.528;21.204;2023-02-21T06:31:35;98789.97;;;7.20;100.00
22283;BME280;11310;51.528;21.204;2023-02-21T06:34:04;98798.31;;;7.27;100.00
22283;BME280;11310;51.528;21.204;2023-02-21T06:36:33;98793.09;;;7.27;100.00
22283;BME280;11310;51.528;21.204;2023-02-21T06:39:04;98799.84;;;7.31;100.00
22283;BME280;11310;51.528;21.204;2023-02-21T06:41:34;98802.91;;;7.39;100.00
22283;BME280;11310;51.528;21.204;2023-02-21T06:44:03;98819.03;;;7.30;100.00
22283;BME280;11310;51.528;21.204;2023-02-21T06:46:31;98805.88;;;7.31;100.00
22283;BME280;11310;51.528;21.204;2023-02-21T06:49:04;98781.53;;;7.32;100.00
22283;BME280;11310;51.528;21.204;2023-02-21T06:51:34;98815.50;;;7.31;100.00
22283;BME280;11310;51.528;21.204;2023-02-21T06:54:06;98805.22;;;7.28;100.00
22283;BME280;11310;51.528;21.204;2023-02-21T06:56:35;98816.31;;;7.31;100.00
22283;BME280;11310;51.528;21.204;2023-02-21T06:59:08;98789.09;;;7.37;100.00
22283;BME280;11310;51.528;21.204;2023-02-21T07:01:36;98814.84;;;7.43;100.00
22283;BME280;11310;51.528;21.204;2023-02-21T07:04:05;98829.59;;;7.44;100.00
22283;BME280;11310;51.528;21.204;2023-02-21T07:06:33;98829.50;;;7.45;100.00
22283;BME280;11310;51.528;21.204;2023-02-21T07:09:02;98829.59;;;7.44;100.00
22283;BME280;11310;51.528;21.204;2023-02-21T07:11:33;98813.00;;;7.45;100.00
22283;BME280;11310;51.528;21.204;2023-02-21T07:14:02;98822.50;;;7.46;100.00
22283;BME280;11310;51.528;21.204;2023-02-21T07:16:31;98819.38;;;7.39;100.00
22283;BME280;11310;51.528;21.204;2023-02-21T07:18:59;98832.28;;;7.42;100.00
22283;BME280;11310;51.528;21.204;2023-02-21T07:21:28;98839.25;;;7.42;100.00
22283;BME280;11310;51.528;21.204;2023-02-21T07:23:56;98847.94;;;7.42;100.00
22283;BME280;11310;51.528;21.204;2023-02-21T07:26:25;98858.44;;;7.41;100.00
22283;BME280;11310;51.528;21.204;2023-02-21T07:28:55;98855.75;;;7.42;100.00
22283;BME280;11310;51.528;21.204;2023-02-21T07:31:24;98858.44;;;7.41;100.00
22283;BME280;11310;51.528;21.204;2023-02-21T07:33:53;98858.44;;;7.41;100.00
22283;BME280;11310;51.528;21.204;2023-02-21T07:36:22;98866.25;;;7.41;100.00
22283;BME280;11310;51.528;21.204;2023-02-21T07:38:50;98878.38;;;7.42;100.00
22283;BME280;11310;51.528;21.204;2023-02-21T07:41:18;98872.09;;;7.46;100.00
22283;BME280;11310;51.528;21.204;2023-02-21T07:43:47;98905.00;;;7.48;100.00
22283;BME280;11310;51.528;21.204;2023-02-21T07:46:17;98895.41;;;7.49;100.00
22283;BME280;11310;51.528;21.204;2023-02-21T07:48:46;98872.09;;;7.46;100.00
22283;BME280;11310;51.528;21.204;2023-02-21T07:51:14;98895.81;;;7.41;99.01
22283;BME280;11310;51.528;21.204;2023-02-21T07:53:43;98892.22;;;7.44;100.00
22283;BME280;11310;51.528;21.204;2023-02-21T07:56:13;98896.41;;;7.46;100.00
22283;BME280;11310;51.528;21.204;2023-02-21T07:58:41;98896.41;;;7.46;100.00
22283;BME280;11310;51.528;21.204;2023-02-21T08:01:10;98892.03;;;7.47;100.00
22283;BME280;11310;51.528;21.204;2023-02-21T08:03:40;98898.19;;;7.46;100.00
22283;BME280;11310;51.528;21.204;2023-02-21T08:06:09;98895.56;;;7.46;100.00
22283;BME280;11310;51.528;21.204;2023-02-21T08:08:39;98893.63;;;7.49;100.00
22283;BME280;11310;51.528;21.204;2023-02-21T08:11:09;98894.63;;;7.47;99.06
22283;BME280;11310;51.528;21.204;2023-02-21T08:13:38;98909.22;;;7.51;100.00
22283;BME280;11310;51.528;21.204;2023-02-21T08:16:07;98900.91;;;7.60;100.00
22283;BME280;11310;51.528;21.204;2023-02-21T08:18:36;98902.28;;;7.67;99.95
22283;BME280;11310;51.528;21.204;2023-02-21T08:21:07;98905.25;;;7.76;96.61
22283;BME280;11310;51.528;21.204;2023-02-21T08:23:37;98907.16;;;7.90;96.00
22283;BME280;11310;51.528;21.204;2023-02-21T08:26:05;98911.53;;;8.05;95.40
22283;BME280;11310;51.528;21.204;2023-02-21T08:28:34;98924.25;;;8.28;92.71
22283;BME280;11310;51.528;21.204;2023-02-21T08:31:03;98933.84;;;8.43;92.78
22283;BME280;11310;51.528;21.204;2023-02-21T08:33:32;98924.41;;;8.71;92.41
22283;BME280;11310;51.528;21.204;2023-02-21T08:36:02;98935.34;;;8.93;89.83
22283;BME280;11310;51.528;21.204;2023-02-21T08:38:32;98943.31;;;9.79;85.44
22283;BME280;11310;51.528;21.204;2023-02-21T08:41:01;98947.66;;;10.08;84.14
22283;BME280;11310;51.528;21.204;2023-02-21T08:43:32;98965.41;;;10.03;86.13
22283;BME280;11310;51.528;21.204;2023-02-21T08:46:01;98957.34;;;9.64;86.11
22283;BME280;11310;51.528;21.204;2023-02-21T08:48:30;98968.22;;;9.13;88.75
22283;BME280;11310;51.528;21.204;2023-02-21T08:50:58;98957.03;;;8.80;89.28
22283;BME280;11310;51.528;21.204;2023-02-21T08:53:27;98990.53;;;8.58;91.73
22283;BME280;11310;51.528;21.204;2023-02-21T08:55:57;98978.13;;;8.46;92.29
22283;BME280;11310;51.528;21.204;2023-02-21T08:58:26;98988.31;;;8.35;92.47
22283;BME280;11310;51.528;21.204;2023-02-21T09:00:54;98989.56;;;8.28;94.24
22283;BME280;11310;51.528;21.204;2023-02-21T09:03:23;98982.66;;;8.27;94.50
22283;BME280;11310;51.528;21.204;2023-02-21T09:05:52;98997.31;;;8.29;94.73
22283;BME280;11310;51.528;21.204;2023-02-21T09:08:21;99007.91;;;8.26;95.75
22283;BME280;11310;51.528;21.204;2023-02-21T09:10:52;99005.38;;;8.25;94.32
22283;BME280;11310;51.528;21.204;2023-02-21T09:13:24;99013.31;;;8.23;92.78
22283;BME280;11310;51.528;21.204;2023-02-21T09:15:52;98998.63;;;8.21;92.92
22283;BME280;11310;51.528;21.204;2023-02-21T09:18:21;99007.63;;;8.15;93.50
22283;BME280;11310;51.528;21.204;2023-02-21T09:20:50;99007.69;;;8.14;94.26
22283;BME280;11310;51.528;21.204;2023-02-21T09:23:25;99003.41;;;8.13;91.83
22283;BME280;11310;51.528;21.204;2023-02-21T09:25:54;99013.06;;;8.11;93.17
22283;BME280;11310;51.528;21.204;2023-02-21T09:28:25;99019.38;;;8.07;92.98
22283;BME280;11310;51.528;21.204;2023-02-21T09:30:56;99019.47;;;8.05;93.27
22283;BME280;11310;51.528;21.204;2023-02-21T09:33:25;99008.16;;;8.05;94.31
22283;BME280;11310;51.528;21.204;2023-02-21T09:35:54;99029.59;;;8.11;89.42
22283;BME280;11310;51.528;21.204;2023-02-21T09:38:25;99025.91;;;8.15;91.09
22283;BME280;11310;51.528;21.204;2023-02-21T09:40:57;99033.44;;;8.21;93.91
22283;BME280;11310;51.528;21.204;2023-02-21T09:43:37;99022.91;;;8.23;91.03
22283;BME280;11310;51.528;21.204;2023-02-21T09:46:10;99032.72;;;8.18;90.53
22283;BME280;11310;51.528;21.204;2023-02-21T09:48:42;99027.59;;;8.16;94.64
22283;BME280;11310;51.528;21.204;2023-02-21T09:51:12;99044.13;;;8.17;90.94
22283;BME280;11310;51.528;21.204;2023-02-21T09:53:46;99038.88;;;8.17;92.79
22283;BME280;11310;51.528;21.204;2023-02-21T09:56:20;99034.75;;;8.13;92.95
22283;BME280;11310;51.528;21.204;2023-02-21T09:58:56;99042.72;;;8.10;93.09
22283;BME280;11310;51.528;21.204;2023-02-21T10:01:36;99058.41;;;8.10;92.79
22283;BME280;11310;51.528;21.204;2023-02-21T10:04:18;99059.19;;;8.12;90.73
22283;BME280;11310;51.528;21.204;2023-02-21T10:06:56;99060.69;;;8.16;90.91
22283;BME280;11310;51.528;21.204;2023-02-21T10:09:35;99074.22;;;8.24;92.84
22283;BME280;11310;51.528;21.204;2023-02-21T10:12:12;99055.38;;;8.34;92.83
22283;BME280;11310;51.528;21.204;2023-02-21T10:14:58;99078.50;;;8.42;92.12
22283;BME280;11310;51.528;21.204;2023-02-21T10:17:33;99075.75;;;8.45;91.80
22283;BME280;11310;51.528;21.204;2023-02-21T10:20:11;99071.13;;;8.50;91.66
22283;BME280;11310;51.528;21.204;2023-02-21T10:22:43;99076.25;;;8.51;91.30
22283;BME280;11310;51.528;21.204;2023-02-21T10:25:22;99077.09;;;8.52;91.06
22283;BME280;11310;51.528;21.204;2023-02-21T10:27:52;99074.56;;;8.50;89.26
22283;BME280;11310;51.528;21.204;2023-02-21T10:30:26;99077.09;;;8.52;91.43
22283;BME280;11310;51.528;21.204;2023-02-21T10:32:57;99078.69;;;8.54;91.64
22283;BME280;11310;51.528;21.204;2023-02-21T10:35:25;99075.59;;;8.63;91.55
22283;BME280;11310;51.528;21.204;2023-02-21T10:37:56;99070.97;;;8.68;91.50
22283;BME280;11310;51.528;21.204;2023-02-21T10:40:31;99083.97;;;8.70;91.11
22283;BME280;11310;51.528;21.204;2023-02-21T10:43:06;99077.31;;;8.80;89.35
22283;BME280;11310;51.528;21.204;2023-02-21T10:45:41;99088.59;;;8.65;89.17
22283;BME280;11310;51.528;21.204;2023-02-21T10:48:14;99089.31;;;9.75;85.13
22283;BME280;11310;51.528;21.204;2023-02-21T10:50:49;99078.03;;;9.89;83.15
22283;BME280;11310;51.528;21.204;2023-02-21T10:53:27;99086.03;;;9.27;87.54
22283;BME280;11310;51.528;21.204;2023-02-21T10:56:20;99095.22;;;9.34;85.05
22283;BME280;11310;51.528;21.204;2023-02-21T10:58:52;99087.78;;;9.42;86.15
22283;BME280;11310;51.528;21.204;2023-02-21T11:01:32;99094.88;;;9.40;86.22
22283;BME280;11310;51.528;21.204;2023-02-21T11:04:03;99107.72;;;9.29;87.11
22283;BME280;11310;51.528;21.204;2023-02-21T11:06:35;99107.97;;;9.24;86.75
22283;BME280;11310;51.528;21.204;2023-02-21T11:09:23;99107.47;;;9.33;87.23
22283;BME280;11310;51.528;21.204;2023-02-21T11:12:00;99107.97;;;9.24;88.00
22283;BME280;11310;51.528;21.204;2023-02-21T11:14:29;99115.81;;;9.09;89.39
22283;BME280;11310;51.528;21.204;2023-02-21T11:17:15;99115.88;;;8.92;88.84
22283;BME280;11310;51.528;21.204;2023-02-21T11:19:50;99117.31;;;8.82;90.33
22283;BME280;11310;51.528;21.204;2023-02-21T11:22:22;99122.16;;;8.72;90.63
22283;BME280;11310;51.528;21.204;2023-02-21T11:24:57;99110.88;;;8.72;91.32
22283;BME280;11310;51.528;21.204;2023-02-21T11:27:29;99124.44;;;8.63;88.52
22283;BME280;11310;51.528;21.204;2023-02-21T11:30:00;99122.13;;;8.57;90.92
22283;BME280;11310;51.528;21.204;2023-02-21T11:32:33;99127.56;;;8.69;91.45
22283;BME280;11310;51.528;21.204;2023-02-21T11:35:21;99131.91;;;8.86;88.28
22283;BME280;11310;51.528;21.204;2023-02-21T11:37:52;99139.41;;;8.92;87.89
22283;BME280;11310;51.528;21.204;2023-02-21T11:40:28;99140.09;;;8.95;88.32
22283;BME280;11310;51.528;21.204;2023-02-21T11:43:21;99136.41;;;9.30;85.33
22283;BME280;11310;51.528;21.204;2023-02-21T11:46:02;99148.06;;;9.56;83.77
22283;BME280;11310;51.528;21.204;2023-02-21T11:48:37;99143.56;;;9.58;85.82
22283;BME280;11310;51.528;21.204;2023-02-21T11:51:20;99153.13;;;9.59;83.39
22283;BME280;11310;51.528;21.204;2023-02-21T11:53:53;99159.38;;;9.72;84.86
22283;BME280;11310;51.528;21.204;2023-02-21T11:59:32;99152.69;;;9.20;83.11
22283;BME280;11310;51.528;21.204;2023-02-21T12:05:21;99164.06;;;9.03;84.28
22283;BME280;11310;51.528;21.204;2023-02-21T12:08:12;99165.25;;;8.98;84.07
22283;BME280;11310;51.528;21.204;2023-02-21T12:10:46;99172.19;;;8.99;83.37
22283;BME280;11310;51.528;21.204;2023-02-21T12:13:24;99174.03;;;8.97;86.80
22283;BME280;11310;51.528;21.204;2023-02-21T12:16:02;99187.50;;;8.89;85.72
22283;BME280;11310;51.528;21.204;2023-02-21T12:18:41;99178.19;;;8.84;87.25
22283;BME280;11310;51.528;21.204;2023-02-21T12:21:39;99192.06;;;8.86;84.19
22283;BME280;11310;51.528;21.204;2023-02-21T12:24:36;99187.84;;;8.83;84.10
22283;BME280;11310;51.528;21.204;2023-02-21T12:27:16;99195.44;;;8.88;88.40
22283;BME280;11310;51.528;21.204;2023-02-21T12:29:57;99192.09;;;9.01;88.62
22283;BME280;11310;51.528;21.204;2023-02-21T12:32:45;99189.72;;;8.97;85.62
22283;BME280;11310;51.528;21.204;2023-02-21T12:38:24;99208.38;;;8.74;85.93
22283;BME280;11310;51.528;21.204;2023-02-21T12:41:04;99191.31;;;8.67;88.70
22283;BME280;11310;51.528;21.204;2023-02-21T12:43:44;99201.06;;;8.63;85.90
22283;BME280;11310;51.528;21.204;2023-02-21T12:46:21;99192.63;;;8.58;87.40
22283;BME280;11310;51.528;21.204;2023-02-21T12:48:58;99184.97;;;8.55;88.48
22283;BME280;11310;51.528;21.204;2023-02-21T12:51:32;99186.88;;;8.52;88.13
22283;BME280;11310;51.528;21.204;2023-02-21T12:54:08;99189.72;;;8.47;87.63
22283;BME280;11310;51.528;21.204;2023-02-21T12:56:43;99195.16;;;8.43;88.39
22283;BME280;11310;51.528;21.204;2023-02-21T12:59:19;99196.97;;;8.42;87.46
22283;BME280;11310;51.528;21.204;2023-02-21T13:01:52;99187.25;;;8.44;88.06
22283;BME280;11310;51.528;21.204;2023-02-21T13:04:31;99181.34;;;8.41;87.10
22283;BME280;11310;51.528;21.204;2023-02-21T13:07:05;99193.56;;;8.40;87.46
22283;BME280;11310;51.528;21.204;2023-02-21T13:09:58;99198.25;;;8.34;85.37
22283;BME280;11310;51.528;21.204;2023-02-21T13:12:32;99199.97;;;8.35;85.40
22283;BME280;11310;51.528;21.204;2023-02-21T13:15:14;99210.56;;;8.32;83.60
22283;BME280;11310;51.528;21.204;2023-02-21T13:17:51;99203.78;;;8.28;84.65
22283;BME280;11310;51.528;21.204;2023-02-21T13:20:25;99205.47;;;8.29;87.38
22283;BME280;11310;51.528;21.204;2023-02-21T13:26:48;99218.25;;;8.35;85.02
22283;BME280;11310;51.528;21.204;2023-02-21T13:29:23;99230.31;;;8.37;87.59
22283;BME280;11310;51.528;21.204;2023-02-21T13:32:00;99223.56;;;8.33;85.99
22283;BME280;11310;51.528;21.204;2023-02-21T13:34:34;99233.38;;;8.28;87.45
22283;BME280;11310;51.528;21.204;2023-02-21T13:37:06;99232.78;;;8.23;89.91
22283;BME280;11310;51.528;21.204;2023-02-21T13:39:36;99243.47;;;8.17;90.11
22283;BME280;11310;51.528;21.204;2023-02-21T13:42:09;99239.31;;;8.13;88.68
22283;BME280;11310;51.528;21.204;2023-02-21T13:44:40;99240.38;;;8.09;90.07
22283;BME280;11310;51.528;21.204;2023-02-21T13:47:13;99257.91;;;8.07;89.90
22283;BME280;11310;51.528;21.204;2023-02-21T13:49:44;99243.16;;;8.06;89.79
22283;BME280;11310;51.528;21.204;2023-02-21T13:55:26;99252.53;;;8.10;89.99
22283;BME280;11310;51.528;21.204;2023-02-21T13:58:31;99254.22;;;8.11;88.07
22283;BME280;11310;51.528;21.204;2023-02-21T14:07:59;99250.13;;;8.06;88.65
22283;BME280;11310;51.528;21.204;2023-02-21T14:10:36;99256.16;;;8.08;89.74
22283;BME280;11310;51.528;21.204;2023-02-21T14:13:17;99255.06;;;8.12;88.91
22283;BME280;11310;51.528;21.204;2023-02-21T14:15:56;99255.91;;;8.12;89.78